Time;durP1;ratioP1;P1;durP2;ratioP2;P2;SDS_P1;SDS_P2;PMS_P1;PMS_P2;Temp;Humidity;BMP_temperature;BMP_pressure;BME280_temperature;BME280_humidity;BME280_pressure;Samples;Min_cycle;Max_cycle;Signal;HPM_P1;HPM_P2
2022/06/07 00:00:09;;;;;;;3.65;2.30;;;23.00;54.90;;;;;;5009946;28;20208;-68
2022/06/07 00:02:36;;;;;;;2.33;2.13;;;23.00;55.00;;;;;;4994866;28;20198;-68
2022/06/07 00:05:03;;;;;;;2.55;2.35;;;23.00;55.00;;;;;;4994642;28;20189;-69
2022/06/07 00:07:30;;;;;;;3.85;2.50;;;23.00;55.00;;;;;;5009858;28;20204;-68
2022/06/07 00:09:57;;;;;;;2.50;2.00;;;23.00;55.00;;;;;;4994946;28;20562;-68
2022/06/07 00:12:25;;;;;;;2.50;2.30;;;23.00;55.00;;;;;;4994908;28;20209;-69
2022/06/07 00:14:53;;;;;;;3.30;2.05;;;23.00;55.50;;;;;;5009720;28;20292;-68
2022/06/07 00:17:19;;;;;;;2.55;2.20;;;23.00;55.00;;;;;;5009735;28;20633;-68
2022/06/07 00:19:47;;;;;;;2.47;2.10;;;23.00;55.00;;;;;;4994489;28;20213;-68
2022/06/07 00:22:15;;;;;;;2.90;2.20;;;23.00;55.60;;;;;;5009660;28;20209;-68
2022/06/07 00:24:42;;;;;;;2.50;2.20;;;22.90;54.90;;;;;;5009507;28;20201;-69
2022/06/07 00:27:09;;;;;;;2.90;2.22;;;22.90;55.00;;;;;;5009863;28;20193;-68
2022/06/07 00:29:38;;;;;;;2.20;2.00;;;23.00;55.00;;;;;;5009483;28;20229;-68
2022/06/07 00:32:06;;;;;;;2.78;2.30;;;22.90;55.00;;;;;;5009464;28;20284;-68
2022/06/07 00:34:32;;;;;;;2.20;2.00;;;22.90;55.00;;;;;;5009409;28;20205;-68
2022/06/07 00:37:00;;;;;;;2.17;2.00;;;22.90;55.00;;;;;;5009435;28;20208;-68
2022/06/07 00:39:27;;;;;;;2.40;2.20;;;22.90;54.90;;;;;;5009279;28;20748;-68
2022/06/07 00:41:54;;;;;;;2.15;1.95;;;22.90;55.00;;;;;;4993003;28;20213;-68
2022/06/07 00:44:29;;;;;;;2.22;2.05;;;22.90;54.90;;;;;;4994560;28;20184;-68
2022/06/07 00:46:59;;;;;;;2.30;2.10;;;22.90;55.00;;;;;;5009506;28;20235;-68
2022/06/07 00:49:27;;;;;;;1.98;1.70;;;22.90;55.60;;;;;;5009305;28;20221;-68
2022/06/07 00:51:54;;;;;;;2.08;1.98;;;22.90;55.00;;;;;;4994304;28;20217;-68
2022/06/07 00:54:22;;;;;;;2.53;1.80;;;22.90;55.00;;;;;;5009387;28;20217;-69
2022/06/07 00:56:51;;;;;;;2.58;2.22;;;22.90;55.00;;;;;;5009256;28;20609;-68
2022/06/07 00:59:22;;;;;;;1.70;1.60;;;22.90;55.60;;;;;;5009402;28;20571;-68
2022/06/07 01:01:50;;;;;;;1.90;1.80;;;22.90;55.00;;;;;;5009159;28;20197;-68
2022/06/07 01:04:22;;;;;;;2.25;1.95;;;22.90;55.00;;;;;;5010276;28;20202;-69
2022/06/07 01:12:20;;;;;;;1.88;1.77;;;22.80;54.90;;;;;;5009049;28;20216;-68
2022/06/07 01:14:47;;;;;;;2.05;1.88;;;22.90;55.00;;;;;;5011338;28;20208;-68
2022/06/07 01:17:15;;;;;;;2.15;1.95;;;22.80;55.00;;;;;;5013229;28;20716;-68
2022/06/07 01:19:43;;;;;;;1.92;1.80;;;22.80;54.90;;;;;;5012997;28;20220;-68
2022/06/07 01:22:12;;;;;;;2.13;1.92;;;22.90;55.00;;;;;;5012909;28;20666;-68
2022/06/07 01:24:39;;;;;;;2.17;1.98;;;22.80;55.50;;;;;;5014084;28;20629;-68
2022/06/07 01:27:08;;;;;;;2.28;1.92;;;22.80;54.90;;;;;;5015357;28;20194;-69
2022/06/07 01:29:35;;;;;;;1.83;1.70;;;22.80;54.90;;;;;;5015368;28;20221;-69
2022/06/07 01:32:03;;;;;;;1.80;1.70;;;22.80;54.90;;;;;;5013519;28;20585;-68
2022/06/07 01:34:30;;;;;;;2.33;1.75;;;22.80;54.90;;;;;;5012873;28;20221;-68
2022/06/07 01:36:57;;;;;;;1.92;1.83;;;22.80;54.90;;;;;;5012500;28;20205;-68
2022/06/07 01:42:13;;;;;;;2.00;1.85;;;22.90;55.00;;;;;;5012645;28;20287;-68
2022/06/07 01:44:41;;;;;;;2.08;1.60;;;22.80;55.00;;;;;;5012769;28;20197;-69
2022/06/07 01:47:10;;;;;;;2.10;1.90;;;22.80;55.00;;;;;;5012701;28;20198;-68
2022/06/07 01:49:43;;;;;;;2.17;1.80;;;22.80;55.00;;;;;;5012502;28;20568;-68
2022/06/07 01:52:10;;;;;;;1.70;1.60;;;22.80;54.90;;;;;;5012480;28;20574;-68
2022/06/07 01:54:42;;;;;;;2.20;2.00;;;22.80;55.00;;;;;;5012334;28;20251;-69
2022/06/07 01:57:10;;;;;;;1.83;1.73;;;22.80;55.00;;;;;;5012655;28;20198;-69
2022/06/07 01:59:38;;;;;;;3.90;2.00;;;22.70;55.00;;;;;;5012308;28;20252;-69
2022/06/07 02:02:07;;;;;;;1.90;1.80;;;22.70;55.00;;;;;;5012374;28;20198;-69
2022/06/07 02:04:36;;;;;;;1.90;1.80;;;22.70;55.00;;;;;;5012189;28;20189;-68
2022/06/07 02:07:04;;;;;;;2.10;1.73;;;22.70;55.00;;;;;;5012265;28;20577;-68
2022/06/07 02:09:35;;;;;;;1.98;1.88;;;22.70;55.00;;;;;;5012383;28;20312;-68
2022/06/07 02:12:04;;;;;;;1.80;1.70;;;22.70;55.00;;;;;;4996950;28;20548;-68
2022/06/07 02:14:32;;;;;;;2.08;1.88;;;22.70;55.00;;;;;;5011909;28;20221;-68
2022/06/07 02:16:59;;;;;;;1.70;1.60;;;22.70;55.10;;;;;;4996866;28;20297;-68
2022/06/07 02:19:35;;;;;;;1.60;1.50;;;22.70;55.10;;;;;;5011943;28;20220;-68
2022/06/07 02:22:02;;;;;;;1.70;1.60;;;22.70;55.10;;;;;;5011866;28;20201;-71
2022/06/07 02:24:29;;;;;;;1.90;1.80;;;22.70;55.10;;;;;;5012013;28;20678;-71
2022/06/07 02:26:58;;;;;;;2.42;1.70;;;22.70;55.10;;;;;;4996246;28;20197;-71
2022/06/07 02:29:27;;;;;;;1.70;1.60;;;22.70;55.10;;;;;;4996838;28;20217;-71
2022/06/07 02:31:56;;;;;;;2.05;1.85;;;22.70;55.20;;;;;;5011737;28;20217;-71
2022/06/07 02:34:24;;;;;;;1.80;1.70;;;22.70;55.20;;;;;;5011573;28;20229;-71
2022/06/07 02:36:52;;;;;;;1.98;1.70;;;22.60;55.10;;;;;;5011611;28;20193;-71
2022/06/07 02:39:20;;;;;;;1.67;1.58;;;22.70;55.10;;;;;;4996974;28;20241;-68
2022/06/07 02:41:47;;;;;;;1.73;1.63;;;22.60;55.10;;;;;;4996865;28;20200;-71
2022/06/07 02:44:14;;;;;;;1.70;1.60;;;22.60;55.10;;;;;;5011681;28;20189;-71
2022/06/07 02:46:43;;;;;;;1.80;1.70;;;22.60;55.10;;;;;;5011407;28;20194;-71
2022/06/07 02:49:10;;;;;;;1.55;1.45;;;22.60;55.10;;;;;;5011285;28;20252;-72
2022/06/07 02:51:37;;;;;;;1.60;1.50;;;22.60;55.10;;;;;;5011266;28;20284;-71
2022/06/07 02:54:04;;;;;;;1.70;1.60;;;22.60;55.20;;;;;;5011219;28;20220;-71
2022/06/07 02:56:32;;;;;;;1.75;1.60;;;22.60;55.20;;;;;;5011504;28;20271;-71
2022/06/07 02:58:59;;;;;;;1.65;1.55;;;22.60;55.20;;;;;;5011375;28;20214;-71
2022/06/07 03:01:29;;;;;;;1.52;1.42;;;22.60;55.20;;;;;;4994833;28;20300;-71
2022/06/07 03:03:59;;;;;;;2.28;1.70;;;22.60;55.20;;;;;;5011148;28;20193;-68
2022/06/07 03:06:28;;;;;;;2.35;1.70;;;22.60;55.20;;;;;;5011844;28;20210;-68
2022/06/07 03:08:56;;;;;;;1.95;1.48;;;22.60;55.20;;;;;;5011357;28;20227;-68
2022/06/07 03:11:23;;;;;;;1.73;1.50;;;22.60;55.30;;;;;;5010761;28;20251;-68
2022/06/07 03:13:50;;;;;;;2.05;1.63;;;22.60;55.40;;;;;;5010996;28;20217;-72
2022/06/07 03:16:25;;;;;;;1.75;1.65;;;22.60;55.40;;;;;;5011186;28;20193;-72
2022/06/07 03:18:52;;;;;;;1.50;1.40;;;22.60;55.30;;;;;;5011337;28;20221;-71
2022/06/07 03:21:21;;;;;;;2.15;1.50;;;22.60;55.30;;;;;;5010765;28;20204;-71
2022/06/07 03:23:50;;;;;;;1.60;1.50;;;22.60;55.20;;;;;;5012268;28;20721;-71
2022/06/07 03:26:18;;;;;;;2.17;1.70;;;22.70;55.10;;;;;;5010949;28;20212;-72
2022/06/07 03:28:52;;;;;;;1.52;1.42;;;22.70;55.10;;;;;;5010807;28;20620;-69
2022/06/07 03:31:21;;;;;;;1.70;1.60;;;22.70;55.00;;;;;;5010645;28;20197;-69
2022/06/07 03:33:53;;;;;;;1.60;1.50;;;22.80;55.00;;;;;;5010508;28;20245;-71
2022/06/07 03:36:23;;;;;;;2.15;1.60;;;22.80;54.80;;;;;;5010743;28;20197;-71
2022/06/07 03:38:50;;;;;;;1.50;1.40;;;22.80;54.80;;;;;;5010317;28;20206;-72
2022/06/07 03:41:22;;;;;;;1.70;1.60;;;22.90;54.80;;;;;;5010966;28;20220;-72
2022/06/07 03:43:54;;;;;;;1.60;1.50;;;22.90;54.60;;;;;;5010473;28;20225;-71
2022/06/07 03:46:22;;;;;;;1.65;1.40;;;22.90;54.50;;;;;;5010257;28;20197;-72
2022/06/07 03:48:50;;;;;;;1.60;1.50;;;22.90;54.50;;;;;;5010063;28;20595;-72
2022/06/07 03:51:22;;;;;;;1.67;1.58;;;23.00;54.50;;;;;;5010377;28;20197;-72
2022/06/07 03:53:49;;;;;;;1.60;1.50;;;23.00;54.50;;;;;;5010023;28;20222;-72
2022/06/07 03:56:16;;;;;;;1.70;1.58;;;23.00;54.40;;;;;;5010420;28;20198;-72
2022/06/07 03:58:45;;;;;;;1.60;1.50;;;23.00;54.30;;;;;;5010280;28;20254;-71
2022/06/07 04:01:15;;;;;;;1.83;1.30;;;23.00;54.20;;;;;;5010073;28;20204;-72
2022/06/07 04:03:45;;;;;;;1.63;1.52;;;23.00;54.20;;;;;;5010053;28;20563;-69
2022/06/07 04:06:19;;;;;;;1.45;1.35;;;23.00;54.10;;;;;;5009920;28;20229;-69
2022/06/07 04:08:48;;;;;;;1.40;1.30;;;23.00;54.10;;;;;;5010180;28;20580;-72
2022/06/07 04:11:18;;;;;;;1.77;1.65;;;23.00;53.90;;;;;;5009982;28;20729;-71
2022/06/07 04:13:53;;;;;;;1.73;1.30;;;23.10;54.00;;;;;;5009937;28;20682;-71
2022/06/07 04:16:21;;;;;;;1.50;1.40;;;23.00;54.00;;;;;;5009842;28;20254;-71
2022/06/07 04:18:53;;;;;;;1.60;1.40;;;23.00;54.10;;;;;;5009760;28;20261;-72
2022/06/07 04:21:20;;;;;;;1.65;1.50;;;23.00;54.00;;;;;;5010108;28;20205;-71
2022/06/07 04:23:49;;;;;;;1.50;1.40;;;23.00;54.60;;;;;;5010233;28;20205;-71
2022/06/07 04:26:18;;;;;;;1.80;1.50;;;23.00;54.50;;;;;;5009769;28;20200;-72
2022/06/07 04:28:47;;;;;;;1.65;1.55;;;23.00;54.90;;;;;;5010882;28;20221;-71
2022/06/07 04:31:15;;;;;;;1.83;1.38;;;22.90;55.20;;;;;;5010549;28;20667;-71
2022/06/07 04:33:44;;;;;;;1.70;1.60;;;22.90;55.10;;;;;;5011516;28;20265;-72
2022/06/07 04:36:15;;;;;;;1.73;1.52;;;22.90;54.70;;;;;;4995590;28;20200;-70
2022/06/07 04:38:44;;;;;;;1.60;1.50;;;22.80;54.40;;;;;;5012067;28;20220;-71
2022/06/07 04:41:14;;;;;;;2.40;1.60;;;22.80;54.60;;;;;;5011378;28;20252;-71
2022/06/07 04:43:45;;;;;;;2.95;1.88;;;22.80;54.70;;;;;;5011605;28;20189;-71
2022/06/07 04:46:15;;;;;;;1.92;1.70;;;22.70;54.90;;;;;;5011941;28;20201;-71
2022/06/07 04:48:43;;;;;;;1.67;1.50;;;22.70;55.70;;;;;;5011823;28;20718;-72
2022/06/07 04:51:21;;;;;;;1.30;1.20;;;22.70;55.30;;;;;;5010755;28;20197;-71
2022/06/07 04:54:00;;;;;;;1.58;1.48;;;22.70;55.40;;;;;;5011311;28;20217;-71
2022/06/07 04:56:33;;;;;;;1.55;1.40;;;22.60;55.40;;;;;;5011853;28;20193;-71
2022/06/07 04:59:00;;;;;;;3.88;1.40;;;22.60;55.60;;;;;;5010637;28;20213;-71
2022/06/07 05:01:30;;;;;;;1.50;1.40;;;22.60;55.80;;;;;;5009942;28;20205;-72
2022/06/07 05:04:00;;;;;;;1.67;1.30;;;22.60;55.40;;;;;;5010710;28;20197;-71
2022/06/07 05:06:28;;;;;;;2.35;1.40;;;22.60;55.00;;;;;;5011000;28;20250;-71
2022/06/07 05:09:07;;;;;;;2.88;1.42;;;22.60;55.20;;;;;;5011139;28;20739;-65
2022/06/07 05:11:36;;;;;;;1.98;1.40;;;22.60;55.70;;;;;;5010064;28;20259;-66
2022/06/07 05:14:03;;;;;;;2.45;1.60;;;22.70;55.70;;;;;;5009316;28;20316;-67
2022/06/07 05:16:32;;;;;;;2.03;1.40;;;22.60;55.40;;;;;;5009051;28;20288;-67
2022/06/07 05:18:59;;;;;;;1.40;1.30;;;22.70;55.70;;;;;;5008722;28;20213;-67
2022/06/07 05:21:28;;;;;;;1.65;1.48;;;22.70;55.70;;;;;;5008948;28;20204;-67
2022/06/07 05:23:56;;;;;;;1.60;1.50;;;22.60;55.60;;;;;;5009280;28;20212;-67
2022/06/07 05:26:27;;;;;;;2.95;1.50;;;22.70;55.70;;;;;;5008989;28;20197;-67
2022/06/07 05:28:57;;;;;;;3.13;1.40;;;22.70;55.80;;;;;;5009585;28;20214;-70
2022/06/07 05:31:25;;;;;;;1.45;1.35;;;22.70;55.70;;;;;;5009105;28;20225;-70
2022/06/07 05:33:53;;;;;;;1.50;1.40;;;22.70;55.70;;;;;;5009127;28;20204;-70
2022/06/07 05:36:20;;;;;;;1.48;1.33;;;22.70;55.50;;;;;;5009341;28;20194;-70
2022/06/07 05:38:54;;;;;;;1.50;1.40;;;22.70;55.50;;;;;;5031860;28;20233;-70
2022/06/07 05:41:28;;;;;;;1.30;1.30;;;22.70;55.50;;;;;;5025530;28;20202;-68
2022/06/07 05:44:02;;;;;;;1.95;1.40;;;22.70;55.50;;;;;;5018430;28;20185;-68
2022/06/07 05:46:35;;;;;;;3.20;1.40;;;22.80;55.30;;;;;;4992765;28;20573;-67
2022/06/07 05:49:13;;;;;;;1.55;1.30;;;22.80;55.20;;;;;;5009734;28;20702;-70
2022/06/07 05:52:00;;;;;;;2.58;1.30;;;22.90;55.00;;;;;;4994043;28;20188;-70
2022/06/07 05:54:28;;;;;;;1.35;1.25;;;22.90;55.00;;;;;;5008592;28;20849;-70
2022/06/07 05:56:56;;;;;;;1.58;1.48;;;23.00;54.90;;;;;;5009831;28;20252;-70
2022/06/07 05:59:24;;;;;;;1.40;1.30;;;23.10;54.80;;;;;;5008883;28;20224;-67
2022/06/07 06:01:51;;;;;;;1.52;1.40;;;23.10;54.60;;;;;;5010757;28;20197;-67
2022/06/07 06:04:24;;;;;;;1.45;1.30;;;23.20;54.50;;;;;;5012290;28;20189;-66
2022/06/07 06:06:50;;;;;;;2.08;1.50;;;23.20;54.20;;;;;;4997198;28;20280;-67
2022/06/07 06:12:03;;;;;;;1.40;1.30;;;23.30;53.90;;;;;;5012143;28;20182;-67
2022/06/07 06:14:43;;;;;;;2.15;1.50;;;23.40;53.80;;;;;;5013269;28;20316;-67
2022/06/07 06:17:17;;;;;;;1.77;1.40;;;23.40;53.70;;;;;;5012383;28;20204;-70
2022/06/07 06:19:51;;;;;;;1.50;1.33;;;23.50;53.60;;;;;;5012259;28;20303;-72
2022/06/07 06:22:20;;;;;;;1.20;1.20;;;23.50;53.50;;;;;;5012571;28;20705;-70
2022/06/07 06:24:55;;;;;;;1.40;1.30;;;23.60;53.30;;;;;;5012233;28;20271;-70
2022/06/07 06:27:22;;;;;;;1.58;1.30;;;23.60;53.10;;;;;;5011863;28;20194;-70
2022/06/07 06:29:53;;;;;;;1.38;1.25;;;23.70;53.00;;;;;;5011783;28;20308;-70
2022/06/07 06:32:20;;;;;;;1.35;1.25;;;23.80;52.90;;;;;;4997265;28;20695;-70
2022/06/07 06:34:50;;;;;;;1.40;1.30;;;23.90;52.60;;;;;;5012420;28;20558;-70
2022/06/07 06:37:17;;;;;;;1.85;1.70;;;23.90;52.40;;;;;;5012403;28;20220;-70
2022/06/07 06:39:45;;;;;;;1.42;1.30;;;24.00;52.30;;;;;;5011574;28;20596;-70
2022/06/07 06:42:14;;;;;;;1.55;1.45;;;24.00;52.20;;;;;;5011531;28;20205;-70
2022/06/07 06:45:02;;;;;;;1.42;1.33;;;24.10;52.10;;;;;;5012042;28;20666;-70
2022/06/07 06:47:29;;;;;;;2.95;1.50;;;24.30;51.80;;;;;;5011954;28;20208;-67
2022/06/07 06:49:57;;;;;;;1.38;1.20;;;24.50;51.40;;;;;;5011148;28;20782;-67
2022/06/07 06:52:24;;;;;;;1.40;1.30;;;24.70;50.90;;;;;;5011643;28;20197;-70
2022/06/07 06:54:51;;;;;;;1.40;1.30;;;24.90;50.50;;;;;;5011153;28;20268;-70
2022/06/07 06:57:22;;;;;;;1.35;1.25;;;25.00;50.10;;;;;;5011322;28;20749;-70
2022/06/07 06:59:52;;;;;;;1.30;1.20;;;25.10;49.90;;;;;;5011450;28;20221;-70
2022/06/07 07:02:22;;;;;;;1.20;1.10;;;25.10;49.80;;;;;;5011145;28;20201;-70
2022/06/07 07:05:04;;;;;;;1.25;1.20;;;25.10;49.80;;;;;;5011668;28;20265;-70
2022/06/07 07:07:32;;;;;;;1.42;1.20;;;25.10;49.80;;;;;;5010962;28;20252;-70
2022/06/07 07:10:00;;;;;;;1.27;1.17;;;25.10;49.70;;;;;;5010884;28;20213;-70
2022/06/07 07:12:29;;;;;;;2.00;1.20;;;25.20;49.70;;;;;;5010664;28;20763;-70
2022/06/07 07:15:01;;;;;;;1.10;1.10;;;25.20;49.70;;;;;;5010865;28;20215;-70
2022/06/07 07:17:39;;;;;;;1.23;1.13;;;25.20;49.70;;;;;;5011238;28;20192;-70
2022/06/07 07:20:07;;;;;;;1.00;1.00;;;25.10;49.50;;;;;;5010848;28;20202;-70
2022/06/07 07:22:38;;;;;;;1.10;1.10;;;25.20;49.60;;;;;;5011519;28;20204;-67
2022/06/07 07:25:07;;;;;;;1.00;1.00;;;25.10;50.20;;;;;;5010945;28;20284;-67
2022/06/07 07:27:34;;;;;;;1.23;1.23;;;25.10;49.70;;;;;;5010886;28;20284;-69
2022/06/07 07:30:03;;;;;;;1.15;1.15;;;25.10;49.70;;;;;;5010617;28;20263;-67
2022/06/07 07:32:35;;;;;;;1.30;1.20;;;25.10;49.60;;;;;;5010797;28;20205;-68
2022/06/07 07:35:05;;;;;;;1.10;1.10;;;25.20;49.40;;;;;;5010626;28;20221;-67
2022/06/07 07:37:42;;;;;;;1.58;1.10;;;25.20;49.20;;;;;;5010405;28;20189;-69
2022/06/07 07:40:14;;;;;;;1.00;1.00;;;25.40;49.00;;;;;;5011235;28;20198;-67
2022/06/07 07:42:42;;;;;;;1.10;1.10;;;25.40;48.70;;;;;;5010464;28;20574;-67
2022/06/07 07:45:20;;;;;;;1.20;1.10;;;25.50;48.60;;;;;;4995478;28;20166;-67
2022/06/07 07:47:51;;;;;;;1.20;1.20;;;25.50;48.50;;;;;;5011047;28;20197;-68
2022/06/07 07:50:20;;;;;;;1.05;1.05;;;25.60;48.50;;;;;;5010338;28;20674;-67
2022/06/07 07:52:51;;;;;;;1.33;1.13;;;25.60;48.20;;;;;;5010146;28;20643;-67
2022/06/07 07:55:18;;;;;;;1.08;1.08;;;25.70;48.20;;;;;;4994978;28;20827;-67
2022/06/07 07:57:49;;;;;;;1.33;1.23;;;25.70;48.00;;;;;;5010647;28;20205;-67
2022/06/07 08:00:19;;;;;;;1.25;1.13;;;25.80;47.90;;;;;;5010071;28;20213;-67
2022/06/07 08:02:55;;;;;;;1.20;1.10;;;25.80;47.80;;;;;;5009944;28;20232;-67
2022/06/07 08:05:32;;;;;;;1.10;1.10;;;25.80;47.70;;;;;;5010095;28;20193;-67
2022/06/07 08:08:01;;;;;;;1.10;1.10;;;25.90;47.60;;;;;;5010040;28;20669;-67
2022/06/07 08:10:29;;;;;;;1.33;1.23;;;25.90;48.10;;;;;;4995097;28;20185;-67
2022/06/07 08:12:57;;;;;;;1.20;1.20;;;25.90;47.50;;;;;;4994620;28;20276;-67
2022/06/07 08:15:25;;;;;;;1.08;1.08;;;25.90;47.40;;;;;;4994802;28;20205;-67
2022/06/07 08:17:52;;;;;;;1.30;1.20;;;25.90;47.60;;;;;;5009622;28;20296;-67
2022/06/07 08:20:19;;;;;;;1.10;1.10;;;25.80;47.70;;;;;;5009709;28;20742;-67
2022/06/07 08:22:50;;;;;;;1.10;1.10;;;25.70;48.00;;;;;;5009749;28;20220;-69
2022/06/07 08:25:17;;;;;;;1.23;1.13;;;25.60;48.20;;;;;;5009079;28;20622;-67
2022/06/07 08:27:44;;;;;;;1.20;1.10;;;25.50;48.50;;;;;;5009600;28;20225;-67
2022/06/07 08:30:13;;;;;;;1.40;1.30;;;25.50;48.60;;;;;;5009537;28;20237;-67
2022/06/07 08:32:44;;;;;;;1.00;1.00;;;25.50;48.80;;;;;;4994334;28;20547;-68
2022/06/07 08:37:57;;;;;;;1.05;0.98;;;25.40;48.90;;;;;;4954796;28;20586;-67
2022/06/07 08:40:31;;;;;;;1.50;1.38;;;25.40;48.80;;;;;;4994555;28;20632;-67
2022/06/07 08:42:59;;;;;;;1.13;1.02;;;25.50;48.70;;;;;;5009587;28;20292;-67
2022/06/07 08:45:28;;;;;;;1.27;1.17;;;25.60;48.50;;;;;;5010491;28;20244;-67
2022/06/07 08:47:57;;;;;;;1.33;1.17;;;25.60;48.40;;;;;;5009416;28;20706;-67
2022/06/07 08:50:25;;;;;;;1.10;1.10;;;25.70;48.40;;;;;;4994056;28;20681;-67
2022/06/07 08:52:53;;;;;;;1.23;1.13;;;25.70;48.20;;;;;;4994135;28;20221;-68
2022/06/07 08:55:23;;;;;;;1.10;1.10;;;25.70;48.10;;;;;;5009189;28;20232;-67
2022/06/07 08:57:56;;;;;;;1.77;1.10;;;25.70;48.10;;;;;;5009481;28;20322;-67
2022/06/07 09:00:24;;;;;;;1.40;1.30;;;25.70;48.10;;;;;;4994150;28;20193;-67
2022/06/07 09:03:22;;;;;;;1.10;1.10;;;25.70;48.10;;;;;;5009192;28;20205;-68
2022/06/07 09:05:53;;;;;;;1.10;1.10;;;25.70;48.20;;;;;;4968784;28;20245;-68
2022/06/07 09:08:20;;;;;;;0.95;0.95;;;25.60;48.20;;;;;;4993939;28;20217;-68
2022/06/07 09:13:35;;;;;;;1.08;1.00;;;25.70;48.00;;;;;;5009496;28;20205;-67
2022/06/07 09:16:02;;;;;;;1.00;1.00;;;25.80;48.40;;;;;;5009799;28;20217;-69
2022/06/07 09:18:30;;;;;;;1.13;1.13;;;25.90;47.60;;;;;;5009495;28;20216;-68
2022/06/07 09:20:59;;;;;;;1.00;1.00;;;26.00;47.30;;;;;;5008991;28;20244;-66
2022/06/07 09:23:28;;;;;;;1.90;1.20;;;26.10;47.30;;;;;;5009182;28;20201;-67
2022/06/07 09:25:58;;;;;;;1.50;1.13;;;26.10;47.40;;;;;;4993929;28;20197;-67
2022/06/07 09:28:27;;;;;;;1.15;1.15;;;26.00;47.40;;;;;;5008944;28;20221;-67
2022/06/07 09:30:59;;;;;;;1.00;1.00;;;26.00;47.40;;;;;;5008826;28;20205;-67
2022/06/07 09:33:28;;;;;;;1.13;1.13;;;26.00;47.40;;;;;;5009130;28;20333;-69
2022/06/07 09:35:57;;;;;;;1.13;1.13;;;26.00;47.40;;;;;;5009447;28;20220;-67
2022/06/07 09:38:29;;;;;;;0.90;0.90;;;26.00;47.40;;;;;;5012749;28;20268;-67
2022/06/07 09:41:03;;;;;;;0.90;0.90;;;25.90;47.50;;;;;;4998640;28;20226;-67
2022/06/07 09:43:40;;;;;;;1.02;1.02;;;25.90;47.60;;;;;;5013829;28;20255;-68
2022/06/07 09:46:08;;;;;;;1.00;1.00;;;25.80;47.80;;;;;;5013294;28;20615;-67
2022/06/07 09:48:40;;;;;;;1.00;1.00;;;25.70;47.90;;;;;;5012872;28;20311;-68
2022/06/07 09:51:11;;;;;;;1.15;1.00;;;25.60;47.90;;;;;;5012891;28;20200;-67
2022/06/07 09:53:42;;;;;;;1.00;1.00;;;25.60;48.10;;;;;;5012473;28;20208;-67
2022/06/07 09:56:26;;;;;;;1.25;1.00;;;25.50;48.30;;;;;;5012278;28;20213;-67
2022/06/07 09:59:00;;;;;;;1.20;1.20;;;25.50;48.40;;;;;;4998006;28;20213;-67
2022/06/07 10:01:30;;;;;;;1.33;1.23;;;25.40;48.50;;;;;;4998690;28;20216;-68
2022/06/07 10:03:59;;;;;;;1.20;1.10;;;25.40;48.50;;;;;;5014499;28;20197;-66
2022/06/07 10:06:27;;;;;;;0.90;0.90;;;25.40;48.50;;;;;;5013937;28;20202;-68
2022/06/07 10:09:06;;;;;;;1.00;1.00;;;25.50;48.40;;;;;;5012356;28;20709;-68
2022/06/07 10:11:36;;;;;;;1.17;1.10;;;25.60;48.30;;;;;;5012394;28;20203;-68
2022/06/07 10:14:10;;;;;;;1.00;1.00;;;25.70;48.20;;;;;;4997251;28;20178;-67
2022/06/07 10:16:42;;;;;;;1.00;1.00;;;25.70;48.10;;;;;;4997349;28;20674;-67
2022/06/07 10:19:20;;;;;;;1.05;1.05;;;25.70;48.10;;;;;;4996941;28;20220;-68
2022/06/07 10:22:15;;;;;;;1.10;1.10;;;25.60;48.10;;;;;;5011907;28;20267;-67
2022/06/07 10:24:47;;;;;;;1.02;0.93;;;25.60;48.30;;;;;;5011876;28;20205;-67
2022/06/07 10:27:18;;;;;;;1.02;1.02;;;25.50;48.30;;;;;;4996982;28;20561;-67
2022/06/07 10:30:14;;;;;;;1.42;1.20;;;25.50;48.40;;;;;;5011696;28;20308;-68
2022/06/07 10:32:58;;;;;;;1.10;1.10;;;25.40;48.50;;;;;;4996747;28;20182;-67
2022/06/07 10:35:30;;;;;;;1.00;1.00;;;25.40;48.50;;;;;;4995126;28;20205;-67
2022/06/07 10:38:07;;;;;;;1.10;1.10;;;25.40;48.50;;;;;;5011683;28;20237;-68
2022/06/07 10:40:37;;;;;;;1.15;1.05;;;25.40;48.40;;;;;;5011555;28;20205;-68
2022/06/07 10:43:09;;;;;;;1.20;1.20;;;25.50;48.40;;;;;;4996575;28;20184;-67
2022/06/07 10:45:38;;;;;;;1.10;1.00;;;25.40;48.50;;;;;;4996542;28;20174;-67
2022/06/07 10:48:07;;;;;;;1.05;1.05;;;25.40;48.40;;;;;;5010956;28;20300;-67
2022/06/07 10:50:38;;;;;;;1.00;1.00;;;25.40;48.50;;;;;;5011450;28;20193;-68
2022/06/07 10:53:07;;;;;;;1.00;1.00;;;25.40;48.60;;;;;;4996454;28;20236;-67
2022/06/07 10:55:35;;;;;;;1.10;1.10;;;25.40;48.70;;;;;;5011092;28;20193;-68
2022/06/07 10:58:20;;;;;;;0.93;0.93;;;25.40;48.70;;;;;;5011157;28;20603;-67
2022/06/07 11:00:49;;;;;;;1.10;1.05;;;25.40;48.70;;;;;;4996319;28;20185;-69
2022/06/07 11:03:24;;;;;;;1.45;1.35;;;25.30;48.70;;;;;;4996019;28;20276;-67
2022/06/07 11:11:23;;;;;;;1.30;1.20;;;25.20;49.00;;;;;;5011117;28;20224;-67
2022/06/07 11:14:07;;;;;;;1.13;1.10;;;25.20;48.90;;;;;;5010963;28;20224;-67
2022/06/07 11:16:40;;;;;;;1.10;1.10;;;25.20;49.00;;;;;;4995798;28;20201;-67
2022/06/07 11:19:08;;;;;;;1.10;1.10;;;25.10;49.00;;;;;;4995867;28;20213;-67
2022/06/07 11:21:37;;;;;;;1.30;1.20;;;25.20;49.20;;;;;;5010730;28;20193;-67
2022/06/07 11:24:17;;;;;;;1.00;1.00;;;25.20;49.20;;;;;;4995610;28;20200;-67
2022/06/07 11:27:15;;;;;;;0.95;0.95;;;25.30;49.20;;;;;;5010888;28;20181;-67
2022/06/07 11:29:44;;;;;;;1.00;1.00;;;25.30;49.00;;;;;;4995577;28;20213;-67
2022/06/07 11:32:40;;;;;;;1.02;1.02;;;25.40;48.90;;;;;;5010688;28;20198;-67
2022/06/07 11:35:45;;;;;;;0.95;0.95;;;25.40;48.80;;;;;;5010635;28;20193;-67
2022/06/07 11:38:33;;;;;;;1.02;1.02;;;25.50;48.70;;;;;;4995295;28;20213;-67
2022/06/07 11:44:00;;;;;;;1.17;1.10;;;25.50;48.60;;;;;;4989301;28;20219;-67
2022/06/07 11:46:39;;;;;;;0.90;0.90;;;25.50;48.50;;;;;;5010494;28;20573;-67
2022/06/07 11:49:30;;;;;;;1.00;1.00;;;25.50;48.60;;;;;;5010137;28;20217;-67
2022/06/07 11:52:00;;;;;;;0.90;0.90;;;25.50;48.60;;;;;;4994999;28;20190;-67
2022/06/07 11:54:29;;;;;;;1.00;1.00;;;25.50;48.60;;;;;;5010167;28;20205;-67
2022/06/07 11:56:58;;;;;;;1.15;1.13;;;25.50;48.60;;;;;;4994962;28;20300;-68
2022/06/07 11:59:34;;;;;;;1.10;1.10;;;25.40;48.70;;;;;;4994044;28;20220;-67
2022/06/07 12:02:36;;;;;;;0.90;0.90;;;25.40;48.80;;;;;;4995826;28;20192;-67
2022/06/07 12:05:18;;;;;;;1.02;1.02;;;25.40;48.80;;;;;;4973438;28;20205;-67
2022/06/07 12:07:48;;;;;;;0.98;0.98;;;25.30;48.80;;;;;;4957541;28;20683;-68
2022/06/07 12:10:32;;;;;;;1.10;1.10;;;25.30;48.80;;;;;;4992984;28;20205;-67
2022/06/07 12:13:01;;;;;;;0.95;0.95;;;25.30;48.90;;;;;;5009898;28;20192;-67
2022/06/07 12:15:31;;;;;;;1.10;1.10;;;25.30;48.90;;;;;;5009855;28;20201;-67
2022/06/07 12:18:00;;;;;;;1.30;1.20;;;25.30;48.90;;;;;;4994630;28;20218;-68
2022/06/07 12:20:30;;;;;;;1.10;1.10;;;25.30;48.90;;;;;;4994630;28;20541;-67
2022/06/07 12:22:58;;;;;;;1.10;1.00;;;25.30;48.90;;;;;;5009731;28;20197;-67
2022/06/07 12:25:25;;;;;;;1.00;1.00;;;25.30;48.90;;;;;;5009624;28;20563;-67
2022/06/07 12:27:53;;;;;;;1.30;1.20;;;25.30;48.90;;;;;;5009612;28;20196;-67
2022/06/07 12:30:23;;;;;;;1.00;1.00;;;25.30;48.80;;;;;;5010063;28;20200;-67
2022/06/07 12:32:50;;;;;;;0.93;0.93;;;25.30;48.90;;;;;;5009729;28;20201;-67
2022/06/07 12:35:21;;;;;;;0.93;0.93;;;25.30;48.80;;;;;;5009621;28;20655;-67
2022/06/07 12:37:49;;;;;;;1.00;1.00;;;25.30;48.80;;;;;;5009546;28;20217;-69
2022/06/07 12:40:35;;;;;;;0.88;0.88;;;25.40;48.90;;;;;;5009729;28;20201;-67
2022/06/07 12:43:02;;;;;;;0.98;0.98;;;25.40;48.80;;;;;;4994433;28;20635;-67
2022/06/07 12:45:33;;;;;;;1.00;1.00;;;25.40;48.80;;;;;;5009633;28;20229;-67
2022/06/07 12:48:07;;;;;;;1.08;1.08;;;25.40;48.80;;;;;;4994432;28;20209;-66
2022/06/07 12:50:39;;;;;;;1.00;1.00;;;25.40;49.40;;;;;;4994811;28;20635;-67
2022/06/07 12:53:06;;;;;;;1.20;1.10;;;25.40;48.70;;;;;;5009302;28;20186;-67
2022/06/07 12:55:36;;;;;;;1.10;1.10;;;25.40;48.70;;;;;;4994074;28;20197;-67
2022/06/07 12:58:05;;;;;;;1.02;1.02;;;25.40;48.80;;;;;;5009075;28;20650;-67
2022/06/07 13:00:34;;;;;;;0.90;0.90;;;25.40;48.70;;;;;;5009147;28;20292;-68
2022/06/07 13:03:04;;;;;;;0.90;0.90;;;25.40;48.70;;;;;;4993979;28;20272;-67
2022/06/07 13:05:33;;;;;;;0.70;0.70;;;25.40;48.70;;;;;;5009139;28;20193;-67
2022/06/07 13:08:02;;;;;;;1.65;1.05;;;25.50;48.70;;;;;;5009039;28;20213;-67
2022/06/07 13:10:31;;;;;;;1.00;1.00;;;25.50;48.60;;;;;;5010364;28;20674;-67
2022/06/07 13:13:00;;;;;;;0.90;0.90;;;25.50;48.60;;;;;;5013419;28;20197;-67
2022/06/07 13:15:28;;;;;;;0.90;0.90;;;25.50;48.60;;;;;;5013035;28;20225;-67
2022/06/07 13:17:59;;;;;;;1.02;1.02;;;25.50;48.60;;;;;;4997884;28;20706;-69
2022/06/07 13:20:28;;;;;;;1.35;0.98;;;25.60;48.40;;;;;;4997913;28;20260;-67
2022/06/07 13:22:57;;;;;;;1.00;1.00;;;25.50;48.40;;;;;;4997838;28;20220;-67
2022/06/07 13:25:27;;;;;;;0.80;0.80;;;25.50;48.40;;;;;;5012877;28;20718;-67
2022/06/07 13:28:01;;;;;;;0.90;0.90;;;25.60;48.50;;;;;;5012852;28;20220;-68
2022/06/07 13:30:29;;;;;;;0.90;0.90;;;25.50;48.60;;;;;;5013197;28;20666;-67